createdAt,value
2018-06-03T00:00:22.703Z,97928.74
2018-06-03T00:00:54.294Z,97930.97
2018-06-03T00:01:25.901Z,97932.69
2018-06-03T00:01:57.557Z,97935.77
2018-06-03T00:02:29.156Z,97932.86
2018-06-03T00:03:00.739Z,97933.37
2018-06-03T00:03:32.332Z,97936.02
2018-06-03T00:04:03.947Z,97928.80
2018-06-03T00:04:35.532Z,97932.71
2018-06-03T00:05:07.118Z,97931.87
2018-06-03T00:05:38.712Z,97932.73
2018-06-03T00:06:10.322Z,97933.16
2018-06-03T00:06:41.943Z,97929.79
2018-06-03T00:07:13.585Z,97937.92
2018-06-03T00:07:45.193Z,97940.47
2018-06-03T00:08:16.778Z,97937.91
2018-06-03T00:08:48.386Z,97934.09
2018-06-03T00:09:19.993Z,97939.66
2018-06-03T00:09:51.592Z,97944.79
2018-06-03T00:10:23.181Z,97945.21
2018-06-03T00:10:54.770Z,97939.23
2018-06-03T00:11:26.379Z,97939.23
2018-06-03T00:11:57.992Z,97939.72
2018-06-03T00:12:29.602Z,97913.05
2018-06-03T00:13:01.190Z,97935.91
2018-06-03T00:13:32.778Z,97937.20
2018-06-03T00:14:04.381Z,97946.64
2018-06-03T00:14:35.981Z,97944.08
2018-06-03T00:15:07.594Z,97943.66
2018-06-03T00:15:39.193Z,97938.48
2018-06-03T00:16:10.842Z,97947.06
2018-06-03T00:16:42.426Z,97945.31
2018-06-03T00:17:14.010Z,97937.25
2018-06-03T00:17:45.594Z,97941.95
2018-06-03T00:18:17.175Z,97941.53
2018-06-03T00:18:48.754Z,97941.55
2018-06-03T00:19:20.324Z,97943.67
2018-06-03T00:19:51.929Z,97943.25
2018-06-03T00:20:23.538Z,97939.84
2018-06-03T00:20:55.147Z,97947.94
2018-06-03T00:21:26.790Z,97946.66
2018-06-03T00:21:58.373Z,97945.41
2018-06-03T00:22:29.977Z,97948.02
2018-06-03T00:23:01.590Z,97944.61
2018-06-03T00:23:33.178Z,97950.59
2018-06-03T00:24:04.782Z,97948.04
2018-06-03T00:24:36.357Z,97942.57
2018-06-03T00:25:07.928Z,97950.20
2018-06-03T00:25:39.529Z,97946.40
2018-06-03T00:26:11.143Z,97948.56
2018-06-03T00:26:42.785Z,97948.98
2018-06-03T00:27:14.398Z,97952.77
2018-06-03T00:27:45.990Z,97950.27
2018-06-03T00:28:17.617Z,97947.27
2018-06-03T00:28:49.221Z,97947.70
2018-06-03T00:29:20.837Z,97952.84
2018-06-03T00:29:52.449Z,97951.63
2018-06-03T00:30:24.066Z,97949.08
2018-06-03T00:30:55.647Z,97953.34
2018-06-03T00:31:27.226Z,97949.95
2018-06-03T00:31:58.877Z,97949.95
2018-06-03T00:32:30.470Z,97945.30
2018-06-03T00:33:02.050Z,97946.09
2018-06-03T00:33:33.654Z,97949.52
2018-06-03T00:34:05.244Z,97958.54
2018-06-03T00:34:36.853Z,97946.59
2018-06-03T00:35:08.498Z,97947.47
2018-06-03T00:35:40.079Z,97946.62
2018-06-03T00:36:11.689Z,97958.12
2018-06-03T00:36:43.374Z,97951.70
2018-06-03T00:37:14.966Z,97947.86
2018-06-03T00:37:46.537Z,97944.44
2018-06-03T00:38:18.139Z,97946.16
2018-06-03T00:38:49.745Z,97945.31
2018-06-03T00:39:21.353Z,97945.31
2018-06-03T00:39:52.982Z,97946.16
2018-06-03T00:40:24.573Z,97946.16
2018-06-03T00:40:56.189Z,97952.98
2018-06-03T00:41:27.804Z,97947.03
2018-06-03T00:41:59.455Z,97950.84
2018-06-03T00:42:31.071Z,97945.72
2018-06-03T00:43:02.661Z,97948.31
2018-06-03T00:43:34.240Z,97949.61
2018-06-03T00:44:06.077Z,97944.55
2018-06-03T00:44:37.670Z,97952.26
2018-06-03T00:45:09.282Z,97947.63
2018-06-03T00:45:40.894Z,97931.23
2018-06-03T00:46:12.476Z,97956.16
2018-06-03T00:46:44.054Z,97948.92
2018-06-03T00:47:15.666Z,97952.34
2018-06-03T00:47:47.306Z,97954.92
2018-06-03T00:48:18.909Z,97947.70
2018-06-03T00:48:50.518Z,97951.13
2018-06-03T00:49:22.116Z,97949.41
2018-06-03T00:49:53.710Z,97956.67
2018-06-03T00:50:25.294Z,97951.98
2018-06-03T00:50:56.888Z,97952.47
2018-06-03T00:51:28.493Z,97949.50
2018-06-03T00:52:00.087Z,97946.50
2018-06-03T00:52:31.661Z,97952.03
2018-06-03T00:53:03.376Z,97950.28
2018-06-03T00:53:34.989Z,97948.58
2018-06-03T00:54:06.574Z,97949.05
2018-06-03T00:54:38.170Z,97950.34
2018-06-03T00:55:09.758Z,97947.80
2018-06-03T00:55:41.361Z,97947.80
2018-06-03T00:56:12.951Z,97948.66
2018-06-03T00:56:44.534Z,97949.56
2018-06-03T00:57:16.108Z,97943.61
2018-06-03T00:57:47.788Z,97950.00
2018-06-03T00:58:19.437Z,97945.73
2018-06-03T00:58:51.046Z,97946.16
2018-06-03T00:59:22.632Z,97942.67
2018-06-03T00:59:54.208Z,97941.37
2018-06-03T01:00:25.818Z,97944.26
2018-06-03T01:00:57.430Z,97944.21
2018-06-03T01:01:29.028Z,97947.20
2018-06-03T01:02:00.618Z,97942.00
2018-06-03T01:02:32.238Z,97942.00
2018-06-03T01:03:03.872Z,97940.28
2018-06-03T01:03:35.462Z,97939.83
2018-06-03T01:04:07.032Z,97947.52
2018-06-03T01:04:38.618Z,97943.69
2018-06-03T01:05:10.206Z,97948.85
2018-06-03T01:05:41.799Z,97954.05
2018-06-03T01:06:13.396Z,97954.06
2018-06-03T01:06:44.972Z,97966.05
2018-06-03T01:07:16.554Z,97948.52
2018-06-03T01:07:48.170Z,97945.10
2018-06-03T01:08:19.780Z,97947.65
2018-06-03T01:08:51.405Z,97947.65
2018-06-03T01:09:23.009Z,97954.06
2018-06-03T01:09:54.618Z,97946.83
2018-06-03T01:10:26.210Z,97947.27
2018-06-03T01:10:57.809Z,97951.14
2018-06-03T01:11:29.384Z,97946.06
2018-06-03T01:12:00.970Z,97947.84
2018-06-03T01:12:32.542Z,97950.84
2018-06-03T01:13:04.178Z,97952.08
2018-06-03T01:13:35.794Z,97946.94
2018-06-03T01:14:07.449Z,97948.23
2018-06-03T01:14:39.038Z,97944.45
2018-06-03T01:15:10.618Z,97940.25
2018-06-03T01:15:42.192Z,97945.73
2018-06-03T01:16:13.797Z,97950.02
2018-06-03T01:16:45.376Z,97947.03
2018-06-03T01:17:16.981Z,97950.44
2018-06-03T01:17:48.570Z,97944.11
2018-06-03T01:18:20.178Z,97944.53
2018-06-03T01:18:51.790Z,97947.09
2018-06-03T01:19:23.419Z,97942.41
2018-06-03T01:19:55.006Z,97943.75
2018-06-03T01:20:26.618Z,97938.66
2018-06-03T01:20:58.196Z,97943.77
2018-06-03T01:21:29.782Z,97938.23
2018-06-03T01:22:01.390Z,97937.02
2018-06-03T01:22:32.997Z,97937.81
2018-06-03T01:23:04.586Z,97939.09
2018-06-03T01:23:36.179Z,97939.16
2018-06-03T01:24:07.752Z,97941.73
2018-06-03T01:24:39.362Z,97944.73
2018-06-03T01:25:10.950Z,97940.88
2018-06-03T01:25:42.545Z,97938.31
2018-06-03T01:26:14.170Z,97939.09
2018-06-03T01:26:45.766Z,97940.42
2018-06-03T01:27:17.379Z,97939.50
2018-06-03T01:27:48.975Z,97943.80
2018-06-03T01:28:20.570Z,97942.13
2018-06-03T01:28:52.178Z,97943.78
2018-06-03T01:29:23.765Z,97939.08
2018-06-03T01:29:55.350Z,97938.22
2018-06-03T01:30:26.939Z,97939.92
2018-06-03T01:30:58.532Z,97940.78
2018-06-03T01:31:30.152Z,97936.94
2018-06-03T01:32:01.758Z,97941.20
2018-06-03T01:32:33.382Z,97930.95
2018-06-03T01:33:04.983Z,97933.94
2018-06-03T01:33:36.557Z,97932.66
2018-06-03T01:34:08.166Z,97935.22
2018-06-03T01:34:39.778Z,97935.58
2018-06-03T01:35:11.368Z,97935.98
2018-06-03T01:35:42.954Z,97932.98
2018-06-03T01:36:14.602Z,97924.88
2018-06-03T01:36:46.190Z,97931.28
2018-06-03T01:37:17.794Z,97923.59
2018-06-03T01:37:49.405Z,97931.22
2018-06-03T01:38:21.004Z,97926.49
2018-06-03T01:38:52.629Z,97930.27
2018-06-03T01:39:24.209Z,97924.30
2018-06-03T01:39:55.809Z,97925.59
2018-06-03T01:40:27.387Z,97922.23
2018-06-03T01:40:58.993Z,97931.64
2018-06-03T01:41:30.602Z,97927.44
2018-06-03T01:42:02.190Z,97928.31
2018-06-03T01:42:33.770Z,97924.12
2018-06-03T01:43:05.381Z,97928.41
2018-06-03T01:43:36.970Z,97931.39
2018-06-03T01:44:08.787Z,97927.14
2018-06-03T01:44:40.398Z,97924.62
2018-06-03T01:45:12.026Z,97930.52
2018-06-03T01:45:43.665Z,97919.33
2018-06-03T01:46:15.254Z,97921.79
2018-06-03T01:46:46.825Z,97917.42
2018-06-03T01:47:18.500Z,97921.61
2018-06-03T01:47:50.101Z,97917.72
2018-06-03T01:48:21.714Z,97913.80
2018-06-03T01:48:53.307Z,97913.79
2018-06-03T01:49:24.913Z,97914.58
2018-06-03T01:49:56.502Z,97910.73
2018-06-03T01:50:28.082Z,97909.45
2018-06-03T01:50:59.689Z,97912.91
2018-06-03T01:51:31.301Z,97910.34
2018-06-03T01:52:02.890Z,97910.73
2018-06-03T01:52:34.470Z,97917.15
2018-06-03T01:53:06.081Z,97910.36
2018-06-03T01:53:37.666Z,97909.94
2018-06-03T01:54:09.278Z,97912.92
2018-06-03T01:54:40.880Z,97911.29
2018-06-03T01:55:12.471Z,97916.02
2018-06-03T01:55:44.040Z,97909.22
2018-06-03T01:56:15.618Z,97907.50
2018-06-03T01:56:47.234Z,97913.06
2018-06-03T01:57:18.890Z,97908.80
2018-06-03T01:57:50.502Z,97903.70
2018-06-03T01:58:22.090Z,97920.77
2018-06-03T01:58:53.699Z,97905.83
2018-06-03T01:59:25.322Z,97911.41
2018-06-03T01:59:56.909Z,97913.97
2018-06-03T02:00:28.494Z,97908.83
2018-06-03T02:01:00.101Z,97912.25
2018-06-03T02:01:31.676Z,97908.83
2018-06-03T02:02:03.286Z,97913.53
2018-06-03T02:02:34.873Z,97907.63
2018-06-03T02:03:06.468Z,97908.05
2018-06-03T02:03:38.069Z,97909.34
2018-06-03T02:04:09.682Z,97918.36
2018-06-03T02:04:41.270Z,97912.39
2018-06-03T02:05:12.856Z,97919.70
2018-06-03T02:05:44.462Z,97915.50
2018-06-03T02:06:16.070Z,97917.21
2018-06-03T02:06:47.655Z,97914.99
2018-06-03T02:07:19.257Z,97917.45
2018-06-03T02:07:50.878Z,97910.45
2018-06-03T02:08:22.463Z,97907.31
2018-06-03T02:08:54.206Z,97912.83
2018-06-03T02:09:25.781Z,97912.84
2018-06-03T02:09:57.389Z,97911.23
2018-06-03T02:10:29.018Z,97918.63
2018-06-03T02:11:00.627Z,97917.34
2018-06-03T02:11:32.227Z,97921.05
2018-06-03T02:12:03.841Z,97923.20
2018-06-03T02:12:35.472Z,97921.92
2018-06-03T02:13:07.054Z,97924.97
2018-06-03T02:13:38.634Z,97930.55
2018-06-03T02:14:10.228Z,97923.34
2018-06-03T02:14:41.834Z,97927.63
2018-06-03T02:15:13.423Z,97928.08
2018-06-03T02:15:45.021Z,97929.83
2018-06-03T02:16:16.616Z,97931.16
2018-06-03T02:16:48.221Z,97932.02
2018-06-03T02:17:19.859Z,97908.50
2018-06-03T02:17:51.470Z,97926.55
2018-06-03T02:18:23.057Z,97926.16
2018-06-03T02:18:54.641Z,97929.17
2018-06-03T02:19:26.231Z,97925.79
2018-06-03T02:19:57.834Z,97926.27
2018-06-03T02:20:29.422Z,97921.59
2018-06-03T02:21:01.025Z,97927.55
2018-06-03T02:21:32.613Z,97926.71
2018-06-03T02:22:04.261Z,97927.20
2018-06-03T02:22:35.857Z,97925.09
2018-06-03T02:23:07.472Z,97929.37
2018-06-03T02:23:39.062Z,97927.66
2018-06-03T02:24:10.679Z,97926.44
2018-06-03T02:24:42.265Z,97928.60
2018-06-03T02:25:13.850Z,97928.65
2018-06-03T02:25:45.438Z,97932.88
2018-06-03T02:26:17.021Z,97930.32
2018-06-03T02:26:48.624Z,97934.63
2018-06-03T02:27:20.236Z,97931.21
2018-06-03T02:27:51.846Z,97929.95
2018-06-03T02:28:23.433Z,97927.76
2018-06-03T02:28:55.022Z,97930.73
2018-06-03T02:29:26.606Z,97918.45
2018-06-03T02:29:58.200Z,97927.76
2018-06-03T02:30:29.819Z,97929.46
2018-06-03T02:31:01.402Z,97926.48
2018-06-03T02:31:32.993Z,97926.95
2018-06-03T02:32:04.586Z,97924.82
2018-06-03T02:32:36.217Z,97929.10
2018-06-03T02:33:07.813Z,97924.85
2018-06-03T02:33:39.402Z,97927.41
2018-06-03T02:34:10.996Z,97923.20
2018-06-03T02:34:42.607Z,97927.48
2018-06-03T02:35:14.203Z,97923.66
2018-06-03T02:35:45.773Z,97929.54
2018-06-03T02:36:17.377Z,97923.16
2018-06-03T02:36:48.970Z,97928.26
2018-06-03T02:37:20.646Z,97934.23
2018-06-03T02:37:52.282Z,97934.21
2018-06-03T02:38:23.901Z,97932.07
2018-06-03T02:38:55.514Z,97931.55
2018-06-03T02:39:27.130Z,97928.93
2018-06-03T02:39:58.724Z,97933.96
2018-06-03T02:40:30.337Z,97930.52
2018-06-03T02:41:01.938Z,97935.16
2018-06-03T02:41:33.518Z,97936.02
2018-06-03T02:42:05.122Z,97928.35
2018-06-03T02:42:36.714Z,97932.24
2018-06-03T02:43:08.355Z,97926.71
2018-06-03T02:43:39.961Z,97930.13
2018-06-03T02:44:11.561Z,97930.96
2018-06-03T02:44:43.146Z,97929.17
2018-06-03T02:45:14.762Z,97934.24
2018-06-03T02:45:46.351Z,97928.23
2018-06-03T02:46:17.934Z,97932.10
2018-06-03T02:46:49.529Z,97931.32
2018-06-03T02:47:21.146Z,97927.05
2018-06-03T02:47:52.743Z,97930.91
2018-06-03T02:48:24.390Z,97927.12
2018-06-03T02:48:56.014Z,97933.98
2018-06-03T02:49:27.632Z,97933.21
2018-06-03T02:49:59.221Z,97927.30
2018-06-03T02:50:30.813Z,97929.04
2018-06-03T02:51:02.437Z,97927.81
2018-06-03T02:51:34.269Z,97925.69
2018-06-03T02:52:05.863Z,97929.09
2018-06-03T02:52:37.453Z,97927.81
2018-06-03T02:53:09.025Z,97918.43
2018-06-03T02:53:40.610Z,97925.62
2018-06-03T02:54:12.245Z,97929.51
2018-06-03T02:54:43.834Z,97924.42
2018-06-03T02:55:15.442Z,97922.28
2018-06-03T02:55:47.016Z,97929.09
2018-06-03T02:56:18.599Z,97927.30
2018-06-03T02:56:50.207Z,97928.15
2018-06-03T02:57:21.859Z,97925.17
2018-06-03T02:57:53.469Z,97925.17
2018-06-03T02:58:25.074Z,97928.60
2018-06-03T02:58:56.682Z,97924.76
2018-06-03T02:59:28.266Z,97934.16
2018-06-03T02:59:59.894Z,97925.24
2018-06-03T03:00:31.482Z,97923.05
2018-06-03T03:01:03.076Z,97928.18
2018-06-03T03:01:34.685Z,97929.93
2018-06-03T03:02:06.285Z,97924.38
2018-06-03T03:02:37.874Z,97930.32
2018-06-03T03:03:09.478Z,97927.81
2018-06-03T03:03:41.075Z,97934.21
2018-06-03T03:04:12.699Z,97924.82
2018-06-03T03:04:44.301Z,97928.68
2018-06-03T03:05:15.885Z,97931.23
2018-06-03T03:05:47.489Z,97926.12
2018-06-03T03:06:19.079Z,97931.66
2018-06-03T03:06:50.666Z,97928.26
2018-06-03T03:07:22.244Z,97927.46
2018-06-03T03:07:53.816Z,97932.09
2018-06-03T03:08:25.408Z,97934.21
2018-06-03T03:08:57.034Z,97926.95
2018-06-03T03:09:28.632Z,97937.56
2018-06-03T03:10:00.242Z,97941.84
2018-06-03T03:10:31.849Z,97939.33
2018-06-03T03:11:03.438Z,97936.38
2018-06-03T03:11:35.046Z,97935.91
2018-06-03T03:12:06.669Z,97933.80
2018-06-03T03:12:38.322Z,97935.57
2018-06-03T03:13:09.911Z,97938.13
2018-06-03T03:13:41.520Z,97934.29
2018-06-03T03:14:13.104Z,97938.13
2018-06-03T03:14:44.677Z,97935.58
2018-06-03T03:15:16.338Z,97932.17
2018-06-03T03:15:47.927Z,97939.02
2018-06-03T03:16:19.518Z,97937.30
2018-06-03T03:16:51.117Z,97933.52
2018-06-03T03:17:22.707Z,97935.24
2018-06-03T03:17:54.277Z,97934.76
2018-06-03T03:18:25.887Z,97930.91
2018-06-03T03:18:57.470Z,97933.05
2018-06-03T03:19:29.050Z,97934.81
2018-06-03T03:20:00.647Z,97935.24
2018-06-03T03:20:32.300Z,97933.98
2018-06-03T03:21:03.889Z,97933.56
2018-06-03T03:21:35.493Z,97936.60
2018-06-03T03:22:07.083Z,97936.19
2018-06-03T03:22:38.676Z,97933.22
2018-06-03T03:23:10.256Z,97940.48
2018-06-03T03:23:41.832Z,97931.57
2018-06-03T03:24:13.437Z,97934.14
2018-06-03T03:24:45.012Z,97926.95
2018-06-03T03:25:16.622Z,97929.94
2018-06-03T03:25:48.221Z,97933.34
2018-06-03T03:26:19.820Z,97928.61
2018-06-03T03:26:51.420Z,97930.78
2018-06-03T03:27:23.026Z,97930.78
2018-06-03T03:27:54.600Z,97932.02
2018-06-03T03:28:26.206Z,97931.12
2018-06-03T03:28:57.788Z,97931.49
2018-06-03T03:29:29.366Z,97933.17
2018-06-03T03:30:00.944Z,97934.85
2018-06-03T03:30:32.526Z,97929.63
2018-06-03T03:31:04.160Z,97934.30
2018-06-03T03:31:35.752Z,97930.82
2018-06-03T03:32:07.338Z,97938.49
2018-06-03T03:32:38.942Z,97935.07
2018-06-03T03:33:10.530Z,97930.80
2018-06-03T03:33:42.124Z,97935.10
2018-06-03T03:34:13.708Z,97933.01
2018-06-03T03:34:45.314Z,97934.67
2018-06-03T03:35:16.912Z,97930.82
2018-06-03T03:35:48.502Z,97938.06
2018-06-03T03:36:20.101Z,97934.66
2018-06-03T03:36:51.690Z,97930.05
2018-06-03T03:37:23.265Z,97932.62
2018-06-03T03:37:54.864Z,97928.85
2018-06-03T03:38:26.440Z,97933.55
2018-06-03T03:38:58.045Z,97934.05
2018-06-03T03:39:29.630Z,97938.75
2018-06-03T03:40:01.234Z,97935.36
2018-06-03T03:40:32.818Z,97934.08
2018-06-03T03:41:04.458Z,97938.77
2018-06-03T03:41:36.042Z,97938.77
2018-06-03T03:42:07.612Z,97934.08
2018-06-03T03:42:39.214Z,97936.20
2018-06-03T03:43:10.807Z,97937.92
2018-06-03T03:43:42.400Z,97935.41
2018-06-03T03:44:14.053Z,97934.16
2018-06-03T03:44:45.648Z,97937.63
2018-06-03T03:45:17.234Z,97939.36
2018-06-03T03:45:48.842Z,97942.34
2018-06-03T03:46:20.480Z,97941.41
2018-06-03T03:46:52.066Z,97937.55
2018-06-03T03:47:23.674Z,97934.20
2018-06-03T03:47:55.298Z,97941.89
2018-06-03T03:48:26.872Z,97919.20
2018-06-03T03:48:58.501Z,97941.13
2018-06-03T03:49:30.085Z,97938.16
2018-06-03T03:50:01.654Z,97942.00
2018-06-03T03:50:33.224Z,97940.28
2018-06-03T03:51:04.826Z,97942.00
2018-06-03T03:51:36.433Z,97936.03
2018-06-03T03:52:08.047Z,97938.16
2018-06-03T03:52:39.654Z,97942.02
2018-06-03T03:53:11.242Z,97938.17
2018-06-03T03:53:42.942Z,97938.66
2018-06-03T03:54:14.540Z,97935.69
2018-06-03T03:54:46.126Z,97942.06
2018-06-03T03:55:17.713Z,97938.58
2018-06-03T03:55:49.308Z,97927.91
2018-06-03T03:56:20.914Z,97938.91
2018-06-03T03:56:52.497Z,97934.14
2018-06-03T03:57:24.097Z,97933.72
2018-06-03T03:57:55.710Z,97942.70
2018-06-03T03:58:27.284Z,97940.19
2018-06-03T03:58:58.896Z,97940.20
2018-06-03T03:59:30.498Z,97936.42
2018-06-03T04:00:02.106Z,97939.00
2018-06-03T04:00:33.690Z,97938.16
2018-06-03T04:01:05.261Z,97936.44
2018-06-03T04:01:36.887Z,97940.27
2018-06-03T04:02:08.474Z,97940.64
2018-06-03T04:02:40.054Z,97941.05
2018-06-03T04:03:11.634Z,97940.55
2018-06-03T04:03:43.214Z,97940.95
2018-06-03T04:04:14.784Z,97943.47
2018-06-03T04:04:46.393Z,97947.36
2018-06-03T04:05:17.996Z,97943.95
2018-06-03T04:05:49.649Z,97940.48
2018-06-03T04:06:21.258Z,97940.91
2018-06-03T04:06:52.856Z,97944.73
2018-06-03T04:07:24.446Z,97949.88
2018-06-03T04:07:56.020Z,97939.67
2018-06-03T04:08:27.626Z,97938.83
2018-06-03T04:08:59.200Z,97940.95
2018-06-03T04:09:30.805Z,97941.81
2018-06-03T04:10:02.414Z,97943.11
2018-06-03T04:10:34.020Z,97942.25
2018-06-03T04:11:05.646Z,97946.09
2018-06-03T04:11:37.230Z,97942.69
2018-06-03T04:12:08.813Z,97938.47
2018-06-03T04:12:40.420Z,97940.63
2018-06-03T04:13:12.046Z,97937.63
2018-06-03T04:13:43.673Z,97942.75
2018-06-03T04:14:15.285Z,97941.13
2018-06-03T04:14:46.874Z,97941.48
2018-06-03T04:15:18.498Z,97942.33
2018-06-03T04:15:50.106Z,97938.06
2018-06-03T04:16:21.693Z,97938.91
2018-06-03T04:16:53.334Z,97939.36
2018-06-03T04:17:24.914Z,97941.84
2018-06-03T04:17:56.505Z,97943.11
2018-06-03T04:18:28.086Z,97939.69
2018-06-03T04:18:59.659Z,97940.12
2018-06-03T04:19:31.265Z,97943.55
2018-06-03T04:20:02.873Z,97944.39
2018-06-03T04:20:34.473Z,97941.41
2018-06-03T04:21:06.090Z,97938.84
2018-06-03T04:21:37.682Z,97941.03
2018-06-03T04:22:09.296Z,97944.88
2018-06-03T04:22:40.882Z,97945.31
2018-06-03T04:23:12.453Z,97943.59
2018-06-03T04:23:44.036Z,97944.45
2018-06-03T04:24:15.641Z,97938.06
2018-06-03T04:24:47.303Z,97944.47
2018-06-03T04:25:19.005Z,97938.52
2018-06-03T04:25:50.980Z,97945.33
2018-06-03T04:26:22.955Z,97944.89
2018-06-03T04:26:54.628Z,97947.44
2018-06-03T04:27:26.261Z,97947.88
2018-06-03T04:27:57.832Z,97946.19
2018-06-03T04:28:30.210Z,97951.33
2018-06-03T04:29:01.804Z,97947.11
2018-06-03T04:29:33.542Z,97952.23
2018-06-03T04:30:05.284Z,97947.55
2018-06-03T04:30:36.904Z,97942.84
2018-06-03T04:31:08.522Z,97948.33
2018-06-03T04:31:40.114Z,97950.45
2018-06-03T04:32:11.696Z,97947.44
2018-06-03T04:32:43.302Z,97949.09
2018-06-03T04:33:14.917Z,97946.11
2018-06-03T04:33:46.507Z,97945.69
2018-06-03T04:34:18.084Z,97951.67
2018-06-03T04:34:49.666Z,97950.37
2018-06-03T04:35:21.232Z,97953.77
2018-06-03T04:35:52.848Z,97948.17
2018-06-03T04:36:24.429Z,97953.27
2018-06-03T04:36:56.038Z,97953.27
2018-06-03T04:37:27.615Z,97952.41
2018-06-03T04:37:59.201Z,97954.53
2018-06-03T04:38:30.810Z,97939.42
2018-06-03T04:39:02.384Z,97958.81
2018-06-03T04:39:33.966Z,97957.95
2018-06-03T04:40:05.585Z,97958.81
2018-06-03T04:40:37.189Z,97954.98
2018-06-03T04:41:08.810Z,97957.95
2018-06-03T04:41:40.395Z,97954.58
2018-06-03T04:42:11.988Z,97954.58
2018-06-03T04:42:43.575Z,97958.42
2018-06-03T04:43:15.182Z,97956.70
2018-06-03T04:43:46.768Z,97958.41
2018-06-03T04:44:18.414Z,97951.64
2018-06-03T04:44:50.015Z,97956.70
2018-06-03T04:45:21.621Z,97955.42
2018-06-03T04:45:53.274Z,97960.97
2018-06-03T04:46:24.860Z,97958.84
2018-06-03T04:46:56.445Z,97956.28
2018-06-03T04:47:28.045Z,97958.41
2018-06-03T04:47:59.646Z,97963.95
2018-06-03T04:48:31.262Z,97959.23
2018-06-03T04:49:02.870Z,97955.39
2018-06-03T04:49:34.483Z,97960.94
2018-06-03T04:50:06.090Z,97960.09
2018-06-03T04:50:37.675Z,97957.97
2018-06-03T04:51:09.337Z,97960.13
2018-06-03T04:51:40.936Z,97962.73
2018-06-03T04:52:12.536Z,97961.03
2018-06-03T04:52:44.144Z,97956.75
2018-06-03T04:53:15.737Z,97961.03
2018-06-03T04:53:47.328Z,97962.75
2018-06-03T04:54:18.946Z,97958.54
2018-06-03T04:54:50.570Z,97967.95
2018-06-03T04:55:22.253Z,97958.54
2018-06-03T04:55:53.860Z,97960.29
2018-06-03T04:56:25.495Z,97958.54
2018-06-03T04:56:57.078Z,97960.27
2018-06-03T04:57:28.666Z,97964.97
2018-06-03T04:58:00.260Z,97958.57
2018-06-03T04:58:31.836Z,97956.84
2018-06-03T04:59:03.443Z,97962.34
2018-06-03T04:59:35.040Z,97958.91
2018-06-03T05:00:06.645Z,97958.89
2018-06-03T05:00:38.272Z,97958.47
2018-06-03T05:01:09.906Z,97955.42
2018-06-03T05:01:41.532Z,97959.67
2018-06-03T05:02:13.115Z,97962.64
2018-06-03T05:02:44.698Z,97956.19
2018-06-03T05:03:16.279Z,97958.73
2018-06-03T05:03:47.881Z,97938.09
2018-06-03T05:04:19.502Z,97957.81
2018-06-03T05:04:51.093Z,97956.94
2018-06-03T05:05:22.732Z,97961.56
2018-06-03T05:05:54.318Z,97954.72
2018-06-03T05:06:25.906Z,97958.56
2018-06-03T05:06:57.521Z,97956.83
2018-06-03T05:07:29.093Z,97956.50
2018-06-03T05:08:00.684Z,97956.42
2018-06-03T05:08:32.336Z,97959.42
2018-06-03T05:09:03.953Z,97964.97
2018-06-03T05:09:35.630Z,97961.97
2018-06-03T05:10:07.222Z,97957.69
2018-06-03T05:10:38.827Z,97953.67
2018-06-03T05:11:10.424Z,97960.63
2018-06-03T05:11:42.015Z,97960.20
2018-06-03T05:12:13.683Z,97967.94
2018-06-03T05:12:45.288Z,97962.92
2018-06-03T05:13:16.924Z,97962.86
2018-06-03T05:13:48.509Z,97959.94
2018-06-03T05:14:20.189Z,97961.66
2018-06-03T05:14:51.768Z,97957.39
2018-06-03T05:15:23.444Z,97959.14
2018-06-03T05:15:55.022Z,97959.95
2018-06-03T05:16:26.635Z,97960.00
2018-06-03T05:16:58.253Z,97963.41
2018-06-03T05:17:29.861Z,97965.50
2018-06-03T05:18:01.469Z,97961.22
2018-06-03T05:18:33.072Z,97967.63
2018-06-03T05:19:04.693Z,97964.69
2018-06-03T05:19:36.298Z,97968.13
2018-06-03T05:20:07.940Z,97972.81
2018-06-03T05:20:39.529Z,97966.78
2018-06-03T05:21:11.128Z,97967.59
2018-06-03T05:21:42.752Z,97962.86
2018-06-03T05:22:14.360Z,97965.75
2018-06-03T05:22:45.950Z,97967.00
2018-06-03T05:23:17.545Z,97965.33
2018-06-03T05:23:49.144Z,97968.72
2018-06-03T05:24:20.738Z,97967.03
2018-06-03T05:24:52.342Z,97966.19
2018-06-03T05:25:23.954Z,97969.59
2018-06-03T05:25:55.540Z,97964.89
2018-06-03T05:26:27.190Z,97964.05
2018-06-03T05:26:58.783Z,97951.98
2018-06-03T05:27:30.380Z,97960.30
2018-06-03T05:28:03.693Z,97964.61
2018-06-03T05:28:36.118Z,97959.06
2018-06-03T05:29:07.778Z,97942.66
2018-06-03T05:29:39.362Z,97962.86
2018-06-03T05:30:10.936Z,97964.55
2018-06-03T05:30:42.532Z,97960.27
2018-06-03T05:31:14.132Z,97959.78
2018-06-03T05:31:45.840Z,97964.45
2018-06-03T05:32:17.446Z,97963.17
2018-06-03T05:32:49.082Z,97959.77
2018-06-03T05:33:20.673Z,97962.33
2018-06-03T05:33:52.289Z,97962.77
2018-06-03T05:34:23.894Z,97961.97
2018-06-03T05:34:55.559Z,97965.39
2018-06-03T05:35:27.148Z,97961.56
2018-06-03T05:35:58.904Z,97962.41
2018-06-03T05:36:30.568Z,97961.97
2018-06-03T05:37:02.175Z,97959.78
2018-06-03T05:37:33.828Z,97955.92
2018-06-03T05:38:05.438Z,97958.83
2018-06-03T05:38:37.036Z,97962.22
2018-06-03T05:39:08.622Z,97959.24
2018-06-03T05:39:40.201Z,97957.55
2018-06-03T05:40:11.776Z,97962.66
2018-06-03T05:40:43.358Z,97964.39
2018-06-03T05:41:14.939Z,97957.19
2018-06-03T05:41:46.596Z,97941.73
2018-06-03T05:42:18.185Z,97965.23
2018-06-03T05:42:49.793Z,97959.25
2018-06-03T05:43:21.390Z,97968.20
2018-06-03T05:43:52.965Z,97968.20
2018-06-03T05:44:24.547Z,97960.03
2018-06-03T05:44:56.353Z,97963.16
2018-06-03T05:45:27.958Z,97963.94
2018-06-03T05:45:59.533Z,97962.66
2018-06-03T05:46:31.138Z,97964.80
2018-06-03T05:47:02.757Z,97963.09
2018-06-03T05:47:34.365Z,97963.09
2018-06-03T05:48:05.965Z,97960.16
2018-06-03T05:48:37.548Z,97962.67
2018-06-03T05:49:09.149Z,97959.67
2018-06-03T05:49:40.734Z,97963.09
2018-06-03T05:50:12.318Z,97960.09
2018-06-03T05:50:43.928Z,97957.94
2018-06-03T05:51:15.534Z,97954.98
2018-06-03T05:51:47.108Z,97960.51
2018-06-03T05:52:18.717Z,97963.43
2018-06-03T05:52:50.326Z,97956.16
2018-06-03T05:53:21.937Z,97958.31
2018-06-03T05:53:53.589Z,97960.88
2018-06-03T05:54:25.211Z,97957.03
2018-06-03T05:54:56.783Z,97958.31
2018-06-03T05:55:28.367Z,97962.59
2018-06-03T05:56:01.113Z,97966.00
2018-06-03T05:56:32.693Z,97962.15
2018-06-03T05:57:04.442Z,97960.02
2018-06-03T05:57:36.057Z,97957.10
2018-06-03T05:58:07.650Z,97960.52
2018-06-03T05:58:39.257Z,97962.67
2018-06-03T05:59:10.855Z,97961.39
2018-06-03T05:59:42.438Z,97960.53
2018-06-03T06:00:14.053Z,97959.66
2018-06-03T06:00:45.737Z,97962.17
2018-06-03T06:01:17.328Z,97960.45
2018-06-03T06:01:48.913Z,97959.17
2018-06-03T06:02:20.498Z,97962.58
2018-06-03T06:02:52.102Z,97956.24
2018-06-03T06:03:23.695Z,97960.89
2018-06-03T06:03:55.302Z,97954.12
2018-06-03T06:04:26.917Z,97956.62
2018-06-03T06:04:58.526Z,97953.98
2018-06-03T06:05:30.100Z,97953.92
2018-06-03T06:06:01.721Z,97965.75
2018-06-03T06:06:33.305Z,97963.59
2018-06-03T06:07:04.894Z,97957.55
2018-06-03T06:07:36.465Z,97961.81
2018-06-03T06:08:08.087Z,97963.95
2018-06-03T06:08:39.697Z,97960.53
2018-06-03T06:09:11.306Z,97960.97
2018-06-03T06:09:42.925Z,97960.16
2018-06-03T06:10:14.536Z,97964.45
2018-06-03T06:10:46.191Z,97962.30
2018-06-03T06:11:17.798Z,97958.49